Time;durP1;ratioP1;P1;durP2;ratioP2;P2;SDS_P1;SDS_P2;PMS_P1;PMS_P2;Temp;Humidity;BMP_temperature;BMP_pressure;BME280_temperature;BME280_humidity;BME280_pressure;Samples;Min_cycle;Max_cycle;Signal;HPM_P1;HPM_P2
2023/01/03 00:01:39;;;;;;;;;;;27.10;62.70;;;;;;6214675;23;19987;-74
2023/01/03 00:04:05;;;;;;;;;;;27.10;62.00;;;;;;6214747;23;19926;-74
2023/01/03 00:06:39;;;;;;;;;;;27.10;63.00;;;;;;6214778;23;19958;-74
2023/01/03 00:09:08;;;;;;;;;;;27.10;62.90;;;;;;6214567;23;19916;-74
2023/01/03 00:14:22;;;;;;;;;;;27.10;62.10;;;;;;6214879;23;20235;-75
2023/01/03 00:16:56;;;;;;;;;;;27.10;62.60;;;;;;6214946;23;19904;-75
2023/01/03 00:19:23;;;;;;;;;;;27.00;62.50;;;;;;6214567;23;19904;-75
2023/01/03 00:21:49;;;;;;;;;;;27.00;63.10;;;;;;6214164;23;19912;-74
2023/01/03 00:24:16;;;;;;;;;;;26.80;62.70;;;;;;6214652;23;19904;-74
2023/01/03 00:26:42;;;;;;;;;;;26.90;63.40;;;;;;6214772;23;19974;-74
2023/01/03 00:29:10;;;;;;;;;;;26.80;63.10;;;;;;6214627;23;20379;-75
2023/01/03 00:31:37;;;;;;;;;;;26.80;64.00;;;;;;6212316;23;19935;-76
2023/01/03 00:34:03;;;;;;;;;;;26.90;64.10;;;;;;6214783;23;19911;-75
2023/01/03 00:36:30;;;;;;;;;;;26.90;62.10;;;;;;6214592;23;19911;-75
2023/01/03 00:38:57;;;;;;;;;;;26.80;63.10;;;;;;6214571;23;19908;-75
2023/01/03 00:41:24;;;;;;;;;;;26.70;61.40;;;;;;6214425;23;19986;-74
2023/01/03 00:43:50;;;;;;;;;;;26.80;63.70;;;;;;6215046;23;19912;-75
2023/01/03 00:46:17;;;;;;;;;;;26.80;63.20;;;;;;6214920;23;19938;-75
2023/01/03 00:48:44;;;;;;;;;;;26.80;63.70;;;;;;6214830;23;19904;-74
2023/01/03 00:51:37;;;;;;;;;;;26.90;62.40;;;;;;6214544;23;20312;-74
2023/01/03 00:54:04;;;;;;;;;;;26.90;62.00;;;;;;6208910;23;19908;-74
2023/01/03 00:56:34;;;;;;;;;;;26.80;63.60;;;;;;6214795;23;19993;-75
2023/01/03 00:59:01;;;;;;;;;;;26.90;63.20;;;;;;6214584;23;19911;-75
2023/01/03 01:01:28;;;;;;;;;;;26.90;62.80;;;;;;6215029;23;20244;-74
2023/01/03 01:03:58;;;;;;;;;;;26.90;63.70;;;;;;6216206;23;19903;-74
2023/01/03 01:06:25;;;;;;;;;;;26.80;62.40;;;;;;6216478;23;19904;-74
2023/01/03 01:08:53;;;;;;;;;;;26.80;64.00;;;;;;6216319;23;19939;-74
2023/01/03 01:11:19;;;;;;;;;;;26.90;62.50;;;;;;6214301;23;19920;-74
2023/01/03 01:13:47;;;;;;;;;;;26.90;62.40;;;;;;6216394;23;19910;-75
2023/01/03 01:16:17;;;;;;;;;;;26.80;61.20;;;;;;6215958;23;19989;-74
2023/01/03 01:18:45;;;;;;;;;;;26.80;62.90;;;;;;6216480;23;19904;-74
2023/01/03 01:21:22;;;;;;;;;;;26.80;63.20;;;;;;6216262;23;19904;-76
2023/01/03 01:23:49;;;;;;;;;;;26.70;62.80;;;;;;6216447;23;19984;-73
2023/01/03 01:26:16;;;;;;;;;;;26.70;63.50;;;;;;6216202;23;19904;-74
2023/01/03 01:28:43;;;;;;;;;;;26.70;63.00;;;;;;6216277;23;19911;-75
2023/01/03 01:31:10;;;;;;;;;;;26.80;64.20;;;;;;6216065;23;20005;-73
2023/01/03 01:33:36;;;;;;;;;;;26.80;62.10;;;;;;6216217;23;19912;-74
2023/01/03 01:36:07;;;;;;;;;;;26.70;63.80;;;;;;6216309;23;19908;-75
2023/01/03 01:38:33;;;;;;;;;;;26.80;62.40;;;;;;6215814;23;20323;-74
2023/01/03 01:41:00;;;;;;;;;;;26.80;63.40;;;;;;6216192;23;20302;-74
2023/01/03 01:46:19;;;;;;;;;;;26.70;62.70;;;;;;6215899;23;20393;-74
2023/01/03 01:48:46;;;;;;;;;;;26.70;62.90;;;;;;6214324;23;19904;-74
2023/01/03 01:51:13;;;;;;;;;;;26.70;62.60;;;;;;6214289;23;19912;-74
2023/01/03 01:53:40;;;;;;;;;;;26.70;62.70;;;;;;6216092;23;19904;-74
2023/01/03 01:56:17;;;;;;;;;;;26.80;62.20;;;;;;6216309;23;20330;-74
2023/01/03 01:58:44;;;;;;;;;;;26.80;62.60;;;;;;6215939;23;19987;-74
2023/01/03 02:01:11;;;;;;;;;;;26.80;61.90;;;;;;6215840;23;20197;-74
2023/01/03 02:03:39;;;;;;;;;;;26.80;62.60;;;;;;6216037;23;20359;-74
2023/01/03 02:06:05;;;;;;;;;;;26.70;62.00;;;;;;6215558;23;20311;-73
2023/01/03 02:08:32;;;;;;;;;;;26.70;62.40;;;;;;6215547;23;19981;-74
2023/01/03 02:11:14;;;;;;;;;;;26.60;61.70;;;;;;6215801;23;20255;-74
2023/01/03 02:13:50;;;;;;;;;;;26.60;62.60;;;;;;6215857;23;20311;-74
2023/01/03 02:16:23;;;;;;;;;;;26.70;62.20;;;;;;6215525;23;20235;-74
2023/01/03 02:19:03;;;;;;;;;;;26.70;62.00;;;;;;6214351;23;19904;-74
2023/01/03 02:21:35;;;;;;;;;;;26.70;61.40;;;;;;6214042;23;19911;-74
2023/01/03 02:24:08;;;;;;;;;;;26.70;60.70;;;;;;6213883;23;19904;-74
2023/01/03 02:26:38;;;;;;;;;;;26.70;62.50;;;;;;6215355;23;19935;-74
2023/01/03 02:29:26;;;;;;;;;;;26.70;61.90;;;;;;6214246;23;20355;-74
2023/01/03 02:32:11;;;;;;;;;;;26.70;62.10;;;;;;6213631;23;20346;-74
2023/01/03 02:34:49;;;;;;;;;;;26.80;61.50;;;;;;6215564;23;19912;-74
2023/01/03 02:37:16;;;;;;;;;;;26.70;62.10;;;;;;6215716;23;19904;-73
2023/01/03 02:39:53;;;;;;;;;;;26.80;62.60;;;;;;6215793;23;19904;-74
2023/01/03 02:45:08;;;;;;;;;;;26.80;60.40;;;;;;6215786;23;19983;-74
2023/01/03 02:47:37;;;;;;;;;;;26.80;59.60;;;;;;6215390;23;20322;-74
2023/01/03 02:50:04;;;;;;;;;;;26.80;60.50;;;;;;6213871;23;19927;-74
2023/01/03 02:52:31;;;;;;;;;;;26.80;59.50;;;;;;6213793;23;20314;-74
2023/01/03 02:54:59;;;;;;;;;;;26.80;58.90;;;;;;6213786;23;19958;-73
2023/01/03 02:57:45;;;;;;;;;;;26.80;59.30;;;;;;6213756;23;20165;-73
2023/01/03 03:00:13;;;;;;;;;;;26.80;59.50;;;;;;6214849;23;19911;-74
2023/01/03 03:02:44;;;;;;;;;;;26.80;60.50;;;;;;6213838;23;19954;-73
2023/01/03 03:05:12;;;;;;;;;;;26.80;59.50;;;;;;6215438;23;20320;-73
2023/01/03 03:07:39;;;;;;;;;;;26.80;59.90;;;;;;6213632;23;19954;-74
2023/01/03 03:15:39;;;;;;;;;;;26.80;60.40;;;;;;6214118;23;19911;-74
2023/01/03 03:18:08;;;;;;;;;;;26.80;60.80;;;;;;6215336;23;19904;-73
2023/01/03 03:26:12;;;;;;;;;;;26.80;62.70;;;;;;6213938;23;19910;-74
2023/01/03 03:28:42;;;;;;;;;;;26.80;61.30;;;;;;6213583;23;19958;-74
2023/01/03 03:31:10;;;;;;;;;;;26.80;61.80;;;;;;6189051;23;19904;-73
2023/01/03 03:33:41;;;;;;;;;;;26.80;61.90;;;;;;6213443;23;19908;-73
2023/01/03 03:36:11;;;;;;;;;;;26.80;62.80;;;;;;6213989;23;19908;-73
2023/01/03 03:38:42;;;;;;;;;;;26.70;61.90;;;;;;6213543;23;19915;-74
2023/01/03 03:47:17;;;;;;;;;;;26.70;63.70;;;;;;6215244;23;20290;-73
2023/01/03 03:49:43;;;;;;;;;;;26.60;64.40;;;;;;6213640;23;19904;-73
2023/01/03 03:52:11;;;;;;;;;;;26.60;64.20;;;;;;6213159;23;20099;-74
2023/01/03 03:54:39;;;;;;;;;;;26.70;64.40;;;;;;6214997;23;19965;-74
2023/01/03 03:57:10;;;;;;;;;;;26.60;63.60;;;;;;6213339;23;19912;-74
2023/01/03 03:59:37;;;;;;;;;;;26.60;64.10;;;;;;6213429;23;19904;-74
2023/01/03 04:02:04;;;;;;;;;;;26.60;63.70;;;;;;6213485;23;20329;-73
2023/01/03 04:04:33;;;;;;;;;;;26.70;65.40;;;;;;6213511;23;19908;-73
2023/01/03 04:07:01;;;;;;;;;;;26.70;65.00;;;;;;6214677;23;19958;-73
2023/01/03 04:09:27;;;;;;;;;;;26.50;64.40;;;;;;6218637;23;19916;-73
2023/01/03 04:11:54;;;;;;;;;;;26.50;65.00;;;;;;6218057;23;19934;-73
2023/01/03 04:14:20;;;;;;;;;;;26.50;64.80;;;;;;6245600;23;19904;-73
2023/01/03 04:16:47;;;;;;;;;;;26.50;64.20;;;;;;6245534;23;19978;-73
2023/01/03 04:19:14;;;;;;;;;;;26.50;64.60;;;;;;6245169;23;19982;-74
2023/01/03 04:21:40;;;;;;;;;;;26.50;64.90;;;;;;6244825;22;20341;-74
2023/01/03 04:24:07;;;;;;;;;;;26.60;64.90;;;;;;6245592;23;19912;-74
2023/01/03 04:26:34;;;;;;;;;;;26.60;64.00;;;;;;6245115;23;19907;-73
2023/01/03 04:29:00;;;;;;;;;;;26.60;63.10;;;;;;6245543;23;19907;-74
2023/01/03 04:31:27;;;;;;;;;;;26.50;64.10;;;;;;6244827;22;19986;-73
2023/01/03 04:33:53;;;;;;;;;;;26.40;64.20;;;;;;6244941;23;19914;-74
2023/01/03 04:36:20;;;;;;;;;;;26.30;64.40;;;;;;6245837;23;19911;-73
2023/01/03 04:38:47;;;;;;;;;;;26.30;64.30;;;;;;6247303;23;19905;-73
2023/01/03 04:41:13;;;;;;;;;;;26.20;65.20;;;;;;6246992;22;19910;-73
2023/01/03 04:46:25;;;;;;;;;;;26.00;66.40;;;;;;6247028;23;20342;-74
2023/01/03 04:48:51;;;;;;;;;;;25.90;67.00;;;;;;6246940;23;19908;-73
2023/01/03 04:51:18;;;;;;;;;;;25.80;67.20;;;;;;6247270;22;19919;-74
2023/01/03 04:53:44;;;;;;;;;;;25.90;67.70;;;;;;6246565;23;20246;-73
2023/01/03 04:56:11;;;;;;;;;;;25.90;67.60;;;;;;6247146;23;19935;-73
2023/01/03 04:58:37;;;;;;;;;;;25.90;68.50;;;;;;6247026;23;20243;-73
2023/01/03 05:01:06;;;;;;;;;;;26.00;68.20;;;;;;6246791;22;19910;-73
2023/01/03 05:03:33;;;;;;;;;;;26.10;68.40;;;;;;6246988;23;19910;-73
2023/01/03 05:06:03;;;;;;;;;;;26.30;68.30;;;;;;6246538;23;20397;-73
2023/01/03 05:08:30;;;;;;;;;;;26.30;67.10;;;;;;6228287;23;19923;-73
2023/01/03 05:10:57;;;;;;;;;;;26.30;67.80;;;;;;6216339;23;19919;-73
2023/01/03 05:13:23;;;;;;;;;;;26.30;67.10;;;;;;6216629;23;19907;-73
2023/01/03 05:15:50;;;;;;;;;;;26.20;67.70;;;;;;6216824;23;19904;-74
2023/01/03 05:18:17;;;;;;;;;;;26.30;67.70;;;;;;6216280;23;19904;-74
2023/01/03 05:26:17;;;;;;;;;;;26.20;65.70;;;;;;6216471;23;19915;-74
2023/01/03 05:28:44;;;;;;;;;;;26.20;66.00;;;;;;6214647;23;20251;-73
2023/01/03 05:31:11;;;;;;;;;;;26.10;65.80;;;;;;6214572;23;19904;-72
2023/01/03 05:33:38;;;;;;;;;;;26.10;66.40;;;;;;6216236;23;20366;-74
2023/01/03 05:36:05;;;;;;;;;;;26.00;66.70;;;;;;6216370;23;19961;-73
2023/01/03 05:38:31;;;;;;;;;;;26.00;66.80;;;;;;6216344;23;19904;-73
2023/01/03 05:40:58;;;;;;;;;;;25.90;67.70;;;;;;6215909;23;19911;-74
2023/01/03 05:43:25;;;;;;;;;;;25.80;66.80;;;;;;6216169;23;20373;-74
2023/01/03 05:45:51;;;;;;;;;;;25.80;67.20;;;;;;6216260;23;19907;-73
2023/01/03 05:48:18;;;;;;;;;;;25.80;68.30;;;;;;6216452;23;19912;-73
2023/01/03 05:50:45;;;;;;;;;;;25.80;67.90;;;;;;6215881;23;19927;-74
2023/01/03 05:53:11;;;;;;;;;;;25.70;66.90;;;;;;6215996;23;19912;-73
2023/01/03 05:55:38;;;;;;;;;;;25.70;66.40;;;;;;6215895;23;20296;-73
2023/01/03 05:58:05;;;;;;;;;;;25.60;67.50;;;;;;6215987;23;19908;-74
2023/01/03 06:00:32;;;;;;;;;;;25.60;68.70;;;;;;6215970;23;19904;-74
2023/01/03 06:02:59;;;;;;;;;;;25.50;68.10;;;;;;6216091;23;19940;-73
2023/01/03 06:05:25;;;;;;;;;;;25.50;68.00;;;;;;6216160;23;20027;-73
2023/01/03 06:07:52;;;;;;;;;;;25.50;69.00;;;;;;6216143;23;19916;-73
2023/01/03 06:10:18;;;;;;;;;;;25.50;68.90;;;;;;6215877;23;20239;-73
2023/01/03 06:12:45;;;;;;;;;;;25.50;68.60;;;;;;6215499;23;19911;-73
2023/01/03 06:15:12;;;;;;;;;;;25.60;68.60;;;;;;6215919;23;19921;-73
2023/01/03 06:17:58;;;;;;;;;;;25.60;69.20;;;;;;6215951;23;19904;-73
2023/01/03 06:20:26;;;;;;;;;;;25.60;69.40;;;;;;6215919;23;20286;-73
2023/01/03 06:22:53;;;;;;;;;;;25.50;69.40;;;;;;6215590;23;19950;-73
2023/01/03 06:25:19;;;;;;;;;;;25.40;69.90;;;;;;6215684;23;19904;-73
2023/01/03 06:27:46;;;;;;;;;;;25.40;70.30;;;;;;6215830;23;20311;-74
2023/01/03 06:30:14;;;;;;;;;;;25.30;70.70;;;;;;6215842;23;19908;-74
2023/01/03 06:32:41;;;;;;;;;;;25.30;71.30;;;;;;6213990;23;20003;-73
2023/01/03 06:35:08;;;;;;;;;;;25.30;71.10;;;;;;6214022;23;20213;-73
2023/01/03 06:37:34;;;;;;;;;;;25.30;71.50;;;;;;6215447;23;19904;-73
2023/01/03 06:40:01;;;;;;;;;;;25.20;71.50;;;;;;6215767;23;19944;-74
2023/01/03 06:42:42;;;;;;;;;;;25.10;71.00;;;;;;6215681;23;20207;-73
2023/01/03 06:53:24;;;;;;;;;;;25.10;72.20;;;;;;6215387;23;19923;-73
2023/01/03 06:55:51;;;;;;;;;;;25.10;72.10;;;;;;6213952;23;19978;-73
2023/01/03 06:58:17;;;;;;;;;;;25.20;71.90;;;;;;6215236;23;20333;-73
2023/01/03 07:00:44;;;;;;;;;;;25.20;72.10;;;;;;6214937;23;19940;-72
2023/01/03 07:03:11;;;;;;;;;;;25.20;71.80;;;;;;6213624;23;19912;-72
2023/01/03 07:05:37;;;;;;;;;;;25.30;72.20;;;;;;6215341;23;19904;-73
2023/01/03 07:08:04;;;;;;;;;;;25.30;72.50;;;;;;6215160;23;20324;-72
2023/01/03 07:10:30;;;;;;;;;;;25.20;72.10;;;;;;6215366;23;19904;-72
2023/01/03 07:15:44;;;;;;;;;;;25.30;72.30;;;;;;6215547;23;20305;-73
2023/01/03 07:18:11;;;;;;;;;;;25.20;72.10;;;;;;6215349;23;19904;-73
2023/01/03 07:20:41;;;;;;;;;;;25.20;72.50;;;;;;6215346;23;19911;-73
2023/01/03 07:23:08;;;;;;;;;;;25.20;72.40;;;;;;6215125;23;19920;-73
2023/01/03 07:25:34;;;;;;;;;;;25.20;72.10;;;;;;6215263;23;20252;-73
2023/01/03 07:28:01;;;;;;;;;;;25.10;72.50;;;;;;6215246;23;19911;-73
2023/01/03 07:30:27;;;;;;;;;;;25.10;72.20;;;;;;6215447;23;19911;-73
2023/01/03 07:32:55;;;;;;;;;;;25.10;72.70;;;;;;6214955;23;19911;-72
2023/01/03 07:35:22;;;;;;;;;;;25.00;72.40;;;;;;6214961;23;19910;-73
2023/01/03 07:37:48;;;;;;;;;;;25.00;72.90;;;;;;6215311;23;20342;-73
2023/01/03 07:40:15;;;;;;;;;;;25.00;72.60;;;;;;6215261;23;19975;-74
2023/01/03 07:45:26;;;;;;;;;;;25.00;73.10;;;;;;6215369;23;20366;-74
2023/01/03 07:47:53;;;;;;;;;;;24.90;73.20;;;;;;6215325;23;20288;-74
2023/01/03 07:50:19;;;;;;;;;;;24.90;73.50;;;;;;6214923;23;20232;-74
2023/01/03 07:52:46;;;;;;;;;;;24.80;73.60;;;;;;6214770;23;19995;-74
2023/01/03 07:55:13;;;;;;;;;;;24.90;73.70;;;;;;6215069;23;19911;-74
2023/01/03 07:57:39;;;;;;;;;;;24.90;73.80;;;;;;6215032;23;19928;-73
2023/01/03 08:00:06;;;;;;;;;;;24.90;74.30;;;;;;6214739;23;19944;-73
2023/01/03 08:02:33;;;;;;;;;;;24.80;74.40;;;;;;6214918;23;20324;-74
2023/01/03 08:04:59;;;;;;;;;;;24.80;74.70;;;;;;6215033;23;20323;-74
2023/01/03 08:07:26;;;;;;;;;;;24.80;74.90;;;;;;6214695;23;19916;-74
2023/01/03 08:15:22;;;;;;;;;;;24.70;75.60;;;;;;6217131;23;19911;-73
2023/01/03 08:17:48;;;;;;;;;;;24.70;75.80;;;;;;6216955;23;19983;-74
2023/01/03 08:20:15;;;;;;;;;;;24.70;75.50;;;;;;6217160;23;19982;-73
2023/01/03 08:22:42;;;;;;;;;;;24.60;75.50;;;;;;6216983;23;19926;-74
2023/01/03 08:25:08;;;;;;;;;;;24.60;75.70;;;;;;6217052;23;20263;-74
2023/01/03 08:27:35;;;;;;;;;;;24.60;75.30;;;;;;6217261;23;19935;-74
2023/01/03 08:30:02;;;;;;;;;;;24.60;75.70;;;;;;6216728;23;20315;-74
2023/01/03 08:32:28;;;;;;;;;;;24.60;76.00;;;;;;6216719;23;19927;-73
2023/01/03 08:34:55;;;;;;;;;;;24.60;76.00;;;;;;6215354;23;19983;-74
2023/01/03 08:37:21;;;;;;;;;;;24.50;76.10;;;;;;6215211;23;19903;-74
2023/01/03 08:39:58;;;;;;;;;;;24.60;76.30;;;;;;6216427;23;19926;-73
2023/01/03 08:42:25;;;;;;;;;;;24.50;76.30;;;;;;6216532;23;20316;-74
2023/01/03 08:44:54;;;;;;;;;;;24.50;76.60;;;;;;6216767;23;19904;-74
2023/01/03 08:47:21;;;;;;;;;;;24.50;76.80;;;;;;6216564;23;19904;-73
2023/01/03 08:49:47;;;;;;;;;;;24.50;76.90;;;;;;6216540;23;19904;-74
2023/01/03 08:52:14;;;;;;;;;;;24.50;76.90;;;;;;6216459;23;20222;-74
2023/01/03 08:54:40;;;;;;;;;;;24.50;77.00;;;;;;6216597;23;19904;-74
2023/01/03 08:57:07;;;;;;;;;;;24.50;77.30;;;;;;6216243;23;20346;-74
2023/01/03 08:59:33;;;;;;;;;;;24.50;77.60;;;;;;6216864;23;19987;-74
2023/01/03 09:02:00;;;;;;;;;;;24.40;77.60;;;;;;6216358;23;19908;-74
2023/01/03 09:04:27;;;;;;;;;;;24.50;77.70;;;;;;6216217;23;19958;-74
2023/01/03 09:06:53;;;;;;;;;;;24.40;78.20;;;;;;6216542;23;20388;-74
2023/01/03 09:09:20;;;;;;;;;;;24.40;78.20;;;;;;6216316;23;19923;-74
2023/01/03 09:11:47;;;;;;;;;;;24.40;78.40;;;;;;6216281;23;20005;-74
2023/01/03 09:14:13;;;;;;;;;;;24.40;78.70;;;;;;6216252;23;19978;-74
2023/01/03 09:16:40;;;;;;;;;;;24.40;78.60;;;;;;6216108;23;19912;-74
2023/01/03 09:19:06;;;;;;;;;;;24.30;78.80;;;;;;6216694;23;19965;-74
2023/01/03 09:21:33;;;;;;;;;;;24.30;78.90;;;;;;6215867;23;19904;-73
2023/01/03 09:24:00;;;;;;;;;;;24.30;78.90;;;;;;6216426;23;20354;-74
2023/01/03 09:26:26;;;;;;;;;;;24.30;78.90;;;;;;6216593;23;19919;-74
2023/01/03 09:28:53;;;;;;;;;;;24.30;78.80;;;;;;6214729;23;20242;-74
2023/01/03 09:31:19;;;;;;;;;;;24.30;78.60;;;;;;6216577;23;19904;-74
2023/01/03 09:33:46;;;;;;;;;;;24.30;78.60;;;;;;6216379;23;19954;-74
2023/01/03 09:36:13;;;;;;;;;;;24.30;78.60;;;;;;6216305;23;20397;-74
2023/01/03 09:38:39;;;;;;;;;;;24.30;78.70;;;;;;6216410;23;19903;-74
2023/01/03 09:41:07;;;;;;;;;;;24.30;78.80;;;;;;6216029;23;19926;-74
2023/01/03 09:43:39;;;;;;;;;;;24.30;78.60;;;;;;6216053;23;19910;-74
2023/01/03 09:46:06;;;;;;;;;;;24.30;78.80;;;;;;6216169;23;19904;-74
2023/01/03 09:48:34;;;;;;;;;;;24.30;78.60;;;;;;6216123;23;19939;-74
2023/01/03 09:51:01;;;;;;;;;;;24.20;78.50;;;;;;6215122;23;20299;-74
2023/01/03 10:05:25;;;;;;;;;;;24.20;78.30;;;;;;6134823;23;19905;-73
2023/01/03 10:08:10;;;;;;;;;;;24.20;78.30;;;;;;6215785;23;19923;-74
2023/01/03 10:10:46;;;;;;;;;;;24.20;78.70;;;;;;6215985;23;19911;-74
2023/01/03 10:13:26;;;;;;;;;;;24.10;79.30;;;;;;6215263;23;20279;-74
2023/01/03 10:15:56;;;;;;;;;;;24.10;80.00;;;;;;6214512;23;19908;-74
2023/01/03 10:18:41;;;;;;;;;;;23.90;80.50;;;;;;6215964;23;19954;-74
2023/01/03 10:21:14;;;;;;;;;;;23.80;82.40;;;;;;6214207;23;20315;-74
2023/01/03 10:23:47;;;;;;;;;;;23.80;83.50;;;;;;6215895;23;19904;-74
2023/01/03 10:26:13;;;;;;;;;;;23.60;85.10;;;;;;6214187;23;19911;-74
2023/01/03 10:28:41;;;;;;;;;;;23.50;84.90;;;;;;6215793;23;19904;-73
2023/01/03 10:31:08;;;;;;;;;;;23.30;87.10;;;;;;6215669;23;20350;-72
2023/01/03 10:33:39;;;;;;;;;;;23.10;88.70;;;;;;6215975;23;19908;-74
2023/01/03 10:36:07;;;;;;;;;;;22.70;90.40;;;;;;6215856;23;20009;-74
2023/01/03 10:38:34;;;;;;;;;;;22.50;91.00;;;;;;6215404;23;20755;-74
2023/01/03 10:41:01;;;;;;;;;;;22.30;91.10;;;;;;6215288;23;19942;-74
2023/01/03 10:43:28;;;;;;;;;;;22.20;91.50;;;;;;6215262;23;19904;-74
2023/01/03 10:45:56;;;;;;;;;;;22.20;91.70;;;;;;6215558;23;19904;-74
2023/01/03 10:48:22;;;;;;;;;;;22.10;91.90;;;;;;6214236;23;20327;-75
2023/01/03 10:50:49;;;;;;;;;;;22.00;91.90;;;;;;6215190;23;19904;-74
2023/01/03 10:53:17;;;;;;;;;;;21.80;91.40;;;;;;6213962;23;19912;-74
2023/01/03 10:55:45;;;;;;;;;;;21.80;91.50;;;;;;6215667;23;19950;-74
2023/01/03 10:58:24;;;;;;;;;;;21.80;91.90;;;;;;6214072;23;19904;-74
2023/01/03 11:00:52;;;;;;;;;;;21.70;92.00;;;;;;6215537;23;19908;-75
2023/01/03 11:03:20;;;;;;;;;;;21.70;92.00;;;;;;6215691;23;19904;-75
2023/01/03 11:06:06;;;;;;;;;;;21.70;92.20;;;;;;6215457;23;19908;-75
2023/01/03 11:08:39;;;;;;;;;;;21.80;92.20;;;;;;6215149;23;19992;-75
2023/01/03 11:11:07;;;;;;;;;;;21.80;92.20;;;;;;6215397;23;19904;-75
2023/01/03 11:13:37;;;;;;;;;;;21.80;91.60;;;;;;6213921;23;19950;-75
2023/01/03 11:16:12;;;;;;;;;;;21.80;91.40;;;;;;6215515;23;20053;-75
2023/01/03 11:18:40;;;;;;;;;;;21.90;91.20;;;;;;6213470;23;19903;-75
2023/01/03 11:21:22;;;;;;;;;;;22.00;91.30;;;;;;6215377;23;19908;-75
2023/01/03 11:24:07;;;;;;;;;;;22.10;91.10;;;;;;6215288;23;19904;-75
2023/01/03 11:26:45;;;;;;;;;;;22.10;90.90;;;;;;6215344;23;19908;-75
2023/01/03 11:29:32;;;;;;;;;;;22.20;91.00;;;;;;6215556;23;20338;-73
2023/01/03 11:31:58;;;;;;;;;;;22.20;90.80;;;;;;6214415;23;20346;-75
2023/01/03 11:34:44;;;;;;;;;;;22.30;90.70;;;;;;6215566;23;19904;-75
2023/01/03 11:37:31;;;;;;;;;;;22.30;91.00;;;;;;6215517;23;19904;-74
2023/01/03 11:40:01;;;;;;;;;;;22.30;89.30;;;;;;6203793;23;19927;-74
2023/01/03 11:42:38;;;;;;;;;;;22.30;89.20;;;;;;6215748;23;19912;-75
2023/01/03 11:45:09;;;;;;;;;;;22.30;88.60;;;;;;6215104;23;19982;-75
2023/01/03 11:47:39;;;;;;;;;;;22.40;88.10;;;;;;6213615;23;19911;-75
2023/01/03 11:50:24;;;;;;;;;;;22.40;88.00;;;;;;6213291;23;19903;-75
2023/01/03 11:53:03;;;;;;;;;;;22.40;87.90;;;;;;6214748;23;19912;-75
2023/01/03 11:55:30;;;;;;;;;;;22.40;87.80;;;;;;6213823;23;20011;-75
2023/01/03 11:58:17;;;;;;;;;;;22.40;88.30;;;;;;6215268;23;20327;-75
2023/01/03 12:00:43;;;;;;;;;;;22.40;87.20;;;;;;6204056;23;19911;-75
2023/01/03 12:03:22;;;;;;;;;;;22.50;87.60;;;;;;6215171;23;19910;-75
2023/01/03 12:05:51;;;;;;;;;;;22.50;87.80;;;;;;6215179;23;20246;-75
2023/01/03 12:08:35;;;;;;;;;;;22.50;88.50;;;;;;6218550;23;19994;-75
2023/01/03 12:11:20;;;;;;;;;;;22.50;88.40;;;;;;6245423;22;19912;-75
2023/01/03 12:14:01;;;;;;;;;;;22.50;88.40;;;;;;6245720;23;19911;-75
2023/01/03 12:16:32;;;;;;;;;;;22.60;88.70;;;;;;6218584;23;20319;-75
2023/01/03 12:19:06;;;;;;;;;;;22.60;89.30;;;;;;6218590;23;19911;-75
2023/01/03 12:21:43;;;;;;;;;;;22.60;89.40;;;;;;6218977;23;19989;-75
2023/01/03 12:24:12;;;;;;;;;;;22.60;89.20;;;;;;6218968;23;20239;-75
2023/01/03 12:26:40;;;;;;;;;;;22.60;89.40;;;;;;6245256;23;19904;-75
2023/01/03 12:29:12;;;;;;;;;;;22.60;89.80;;;;;;6193717;23;19993;-75
2023/01/03 12:31:41;;;;;;;;;;;22.60;89.90;;;;;;6218313;23;19912;-75
2023/01/03 12:34:10;;;;;;;;;;;22.50;90.00;;;;;;6218671;23;19907;-75
2023/01/03 12:36:41;;;;;;;;;;;22.50;89.00;;;;;;6244892;23;19918;-75
2023/01/03 12:39:19;;;;;;;;;;;22.60;89.30;;;;;;6218215;23;19904;-75
2023/01/03 12:41:55;;;;;;;;;;;22.50;89.00;;;;;;6245279;22;19974;-75
2023/01/03 12:44:27;;;;;;;;;;;22.50;88.90;;;;;;6245162;23;19957;-75
2023/01/03 12:46:54;;;;;;;;;;;22.60;89.60;;;;;;6218553;23;19908;-75
2023/01/03 12:49:34;;;;;;;;;;;22.50;89.10;;;;;;6218734;23;19996;-75
2023/01/03 12:52:01;;;;;;;;;;;22.50;88.80;;;;;;6218356;23;19919;-75
2023/01/03 12:54:38;;;;;;;;;;;22.60;89.00;;;;;;6245190;23;19903;-75
2023/01/03 12:57:11;;;;;;;;;;;22.60;89.10;;;;;;6218991;23;19957;-75
2023/01/03 12:59:38;;;;;;;;;;;22.60;89.70;;;;;;6246639;23;19950;-75
2023/01/03 13:02:25;;;;;;;;;;;22.60;89.80;;;;;;6246946;22;20370;-75
2023/01/03 13:04:53;;;;;;;;;;;22.60;89.00;;;;;;6220654;23;19912;-75
2023/01/03 13:07:22;;;;;;;;;;;22.60;88.50;;;;;;6243988;23;19903;-75
2023/01/03 13:09:55;;;;;;;;;;;22.60;89.00;;;;;;6215204;23;19995;-75
2023/01/03 13:12:23;;;;;;;;;;;22.70;89.10;;;;;;6214889;23;19911;-75
2023/01/03 13:14:51;;;;;;;;;;;22.70;88.50;;;;;;6216489;23;20256;-75
2023/01/03 13:17:18;;;;;;;;;;;22.70;88.80;;;;;;6214990;23;19911;-75
2023/01/03 13:19:54;;;;;;;;;;;22.60;88.30;;;;;;6216430;23;19904;-75
2023/01/03 13:22:21;;;;;;;;;;;22.70;88.00;;;;;;6216377;23;19904;-75
2023/01/03 13:24:50;;;;;;;;;;;22.60;87.80;;;;;;6216212;23;19925;-75
2023/01/03 13:27:16;;;;;;;;;;;22.60;87.40;;;;;;6216492;23;19912;-75
2023/01/03 13:29:44;;;;;;;;;;;22.70;87.60;;;;;;6216569;23;20239;-75
2023/01/03 13:32:29;;;;;;;;;;;22.70;87.80;;;;;;6216286;23;19965;-75
2023/01/03 13:34:58;;;;;;;;;;;22.70;88.20;;;;;;6216026;23;19912;-75
2023/01/03 13:37:43;;;;;;;;;;;22.70;87.80;;;;;;6216445;23;19904;-75
2023/01/03 13:40:10;;;;;;;;;;;22.60;87.20;;;;;;6215971;23;19903;-74
2023/01/03 13:42:37;;;;;;;;;;;22.60;87.20;;;;;;6215794;23;19904;-74
2023/01/03 13:45:18;;;;;;;;;;;22.60;86.90;;;;;;6215951;23;19915;-75
2023/01/03 13:47:46;;;;;;;;;;;22.60;87.50;;;;;;6216299;23;20323;-75
2023/01/03 13:50:19;;;;;;;;;;;22.60;87.40;;;;;;6216176;23;19908;-74
2023/01/03 13:53:05;;;;;;;;;;;22.60;87.20;;;;;;6216134;23;19916;-75
2023/01/03 13:55:38;;;;;;;;;;;22.60;87.40;;;;;;6215982;23;19939;-75
2023/01/03 13:58:23;;;;;;;;;;;22.60;87.20;;;;;;6216351;23;19915;-75
2023/01/03 14:00:59;;;;;;;;;;;22.50;87.20;;;;;;6216033;23;19958;-75
2023/01/03 14:03:39;;;;;;;;;;;22.50;87.20;;;;;;6214767;23;20224;-75
2023/01/03 14:06:21;;;;;;;;;;;22.50;87.30;;;;;;6214509;23;19911;-75
2023/01/03 14:09:06;;;;;;;;;;;22.50;87.30;;;;;;6215817;23;19937;-74
2023/01/03 14:11:47;;;;;;;;;;;22.50;87.20;;;;;;6215755;23;19963;-75
2023/01/03 14:14:14;;;;;;;;;;;22.50;86.90;;;;;;6214477;23;19904;-75
2023/01/03 14:16:43;;;;;;;;;;;22.40;87.00;;;;;;6214355;23;19981;-75
2023/01/03 14:19:16;;;;;;;;;;;22.50;87.30;;;;;;6215763;23;19912;-74
2023/01/03 14:21:42;;;;;;;;;;;22.50;87.30;;;;;;6215804;23;19908;-75
2023/01/03 14:24:17;;;;;;;;;;;22.50;87.50;;;;;;6216021;23;19934;-74
2023/01/03 14:26:43;;;;;;;;;;;22.50;87.40;;;;;;6214116;23;19908;-75
2023/01/03 14:29:13;;;;;;;;;;;22.50;87.40;;;;;;6215761;23;19978;-74
2023/01/03 14:31:42;;;;;;;;;;;22.50;87.10;;;;;;6213853;23;19995;-75
2023/01/03 14:34:13;;;;;;;;;;;22.50;87.50;;;;;;6214256;23;19911;-75
2023/01/03 14:36:46;;;;;;;;;;;22.50;87.60;;;;;;6214232;23;19911;-75
2023/01/03 14:39:20;;;;;;;;;;;22.60;87.60;;;;;;6215919;23;19904;-75
2023/01/03 14:41:46;;;;;;;;;;;22.60;87.70;;;;;;6215538;23;19942;-75
2023/01/03 14:44:13;;;;;;;;;;;22.60;87.20;;;;;;6215862;23;19908;-75
2023/01/03 14:46:41;;;;;;;;;;;22.50;86.80;;;;;;6215812;23;19940;-74
2023/01/03 14:49:21;;;;;;;;;;;22.50;86.60;;;;;;6215533;23;19979;-75
2023/01/03 14:51:47;;;;;;;;;;;22.60;86.80;;;;;;6213643;23;20007;-73
2023/01/03 14:54:15;;;;;;;;;;;22.60;87.30;;;;;;6214042;23;19908;-74
2023/01/03 14:56:43;;;;;;;;;;;22.60;87.30;;;;;;6215362;23;20255;-74
2023/01/03 14:59:10;;;;;;;;;;;22.60;87.00;;;;;;6215287;23;19950;-74
2023/01/03 15:01:36;;;;;;;;;;;22.60;87.40;;;;;;6213662;23;19911;-74
2023/01/03 15:04:03;;;;;;;;;;;22.50;86.60;;;;;;6215310;23;20331;-74
2023/01/03 15:06:30;;;;;;;;;;;22.60;86.90;;;;;;6214091;23;19904;-74
2023/01/03 15:08:58;;;;;;;;;;;22.60;87.10;;;;;;6215496;23;19923;-74
2023/01/03 15:11:28;;;;;;;;;;;22.50;86.80;;;;;;6214084;23;19966;-75
2023/01/03 15:14:01;;;;;;;;;;;22.60;87.10;;;;;;6215360;23;19904;-75
2023/01/03 15:16:29;;;;;;;;;;;22.50;87.10;;;;;;6214007;23;19942;-75
2023/01/03 15:19:11;;;;;;;;;;;22.50;87.20;;;;;;6213681;23;19939;-74
2023/01/03 15:21:38;;;;;;;;;;;22.60;87.20;;;;;;6215153;23;20038;-74
2023/01/03 15:24:09;;;;;;;;;;;22.50;87.30;;;;;;6213934;23;19910;-74
2023/01/03 15:26:37;;;;;;;;;;;22.50;87.60;;;;;;6213995;23;20316;-74
2023/01/03 15:29:05;;;;;;;;;;;22.50;87.50;;;;;;6215245;23;19950;-74
2023/01/03 15:31:33;;;;;;;;;;;22.50;87.20;;;;;;6214847;23;19904;-74
2023/01/03 15:34:01;;;;;;;;;;;22.50;87.20;;;;;;6215279;23;20239;-74
2023/01/03 15:36:28;;;;;;;;;;;22.50;87.30;;;;;;6215331;23;19908;-74